sensor_id;sensor_type;location;lat;lon;timestamp;pressure;altitude;pressure_sealevel;temperature;humidity
6942;BME280;3510;43.200;27.920;2023-04-09T00:01:34;101644.75;;;18.51;42.68
6942;BME280;3510;43.200;27.920;2023-04-09T00:04:01;101647.31;;;18.12;43.71
6942;BME280;3510;43.200;27.920;2023-04-09T00:06:28;101651.56;;;17.27;45.71
6942;BME280;3510;43.200;27.920;2023-04-09T00:08:55;101650.97;;;17.91;44.93
6942;BME280;3510;43.200;27.920;2023-04-09T00:11:22;101654.16;;;18.52;43.26
6942;BME280;3510;43.200;27.920;2023-04-09T00:13:48;101649.50;;;18.71;43.33
6942;BME280;3510;43.200;27.920;2023-04-09T00:16:15;101646.16;;;18.59;43.63
6942;BME280;3510;43.200;27.920;2023-04-09T00:18:43;101656.44;;;18.60;44.47
6942;BME280;3510;43.200;27.920;2023-04-09T00:21:10;101655.50;;;18.72;43.73
6942;BME280;3510;43.200;27.920;2023-04-09T00:23:37;101645.91;;;18.81;43.23
6942;BME280;3510;43.200;27.920;2023-04-09T00:26:04;101654.66;;;18.08;43.66
6942;BME280;3510;43.200;27.920;2023-04-09T00:28:31;101658.53;;;17.17;45.37
6942;BME280;3510;43.200;27.920;2023-04-09T00:30:58;101653.34;;;17.64;44.49
6942;BME280;3510;43.200;27.920;2023-04-09T00:33:25;101627.56;;;17.23;45.08
6942;BME280;3510;43.200;27.920;2023-04-09T00:35:53;101619.81;;;17.22;44.65
6942;BME280;3510;43.200;27.920;2023-04-09T00:38:20;101655.66;;;17.13;45.30
6942;BME280;3510;43.200;27.920;2023-04-09T00:40:48;101628.78;;;17.05;45.04
6942;BME280;3510;43.200;27.920;2023-04-09T00:43:15;101644.50;;;17.11;45.23
6942;BME280;3510;43.200;27.920;2023-04-09T00:45:42;101647.56;;;16.72;46.33
6942;BME280;3510;43.200;27.920;2023-04-09T00:48:09;101651.03;;;16.96;46.10
6942;BME280;3510;43.200;27.920;2023-04-09T00:50:36;101647.59;;;16.83;46.19
6942;BME280;3510;43.200;27.920;2023-04-09T00:53:04;101645.47;;;16.54;46.78
6942;BME280;3510;43.200;27.920;2023-04-09T00:55:31;101648.00;;;16.54;47.18
6942;BME280;3510;43.200;27.920;2023-04-09T00:57:58;101641.63;;;16.14;47.83
6942;BME280;3510;43.200;27.920;2023-04-09T01:00:24;101644.25;;;16.73;46.62
6942;BME280;3510;43.200;27.920;2023-04-09T01:02:51;101648.34;;;16.70;46.68
6942;BME280;3510;43.200;27.920;2023-04-09T01:05:18;101639.44;;;16.42;47.35
6942;BME280;3510;43.200;27.920;2023-04-09T01:07:49;101647.38;;;16.92;46.58
6942;BME280;3510;43.200;27.920;2023-04-09T01:10:22;101645.16;;;16.73;47.10
6942;BME280;3510;43.200;27.920;2023-04-09T01:12:53;101632.72;;;16.42;47.55
6942;BME280;3510;43.200;27.920;2023-04-09T01:15:23;101640.31;;;15.97;48.97
6942;BME280;3510;43.200;27.920;2023-04-09T01:17:52;101638.31;;;15.93;48.75
6942;BME280;3510;43.200;27.920;2023-04-09T01:20:21;101642.09;;;16.32;47.82
6942;BME280;3510;43.200;27.920;2023-04-09T01:22:56;101648.31;;;16.47;47.49
6942;BME280;3510;43.200;27.920;2023-04-09T01:25:32;101642.53;;;16.26;48.32
6942;BME280;3510;43.200;27.920;2023-04-09T01:28:12;101645.13;;;16.61;47.39
6942;BME280;3510;43.200;27.920;2023-04-09T01:30:40;101644.50;;;16.76;47.38
6942;BME280;3510;43.200;27.920;2023-04-09T01:33:10;101640.97;;;16.85;46.95
6942;BME280;3510;43.200;27.920;2023-04-09T01:35:38;101632.91;;;17.51;45.60
6942;BME280;3510;43.200;27.920;2023-04-09T01:38:06;101642.84;;;17.00;46.61
6942;BME280;3510;43.200;27.920;2023-04-09T01:40:33;101636.13;;;16.77;47.32
6942;BME280;3510;43.200;27.920;2023-04-09T01:43:00;101634.75;;;16.58;47.70
6942;BME280;3510;43.200;27.920;2023-04-09T01:45:29;101630.44;;;16.69;47.70
6942;BME280;3510;43.200;27.920;2023-04-09T01:48:09;101631.97;;;16.67;47.69
6942;BME280;3510;43.200;27.920;2023-04-09T01:50:36;101630.63;;;16.72;47.27
6942;BME280;3510;43.200;27.920;2023-04-09T01:53:03;101631.88;;;17.12;46.46
6942;BME280;3510;43.200;27.920;2023-04-09T01:55:30;101628.56;;;17.02;46.71
6942;BME280;3510;43.200;27.920;2023-04-09T01:57:56;101630.78;;;17.09;46.58
6942;BME280;3510;43.200;27.920;2023-04-09T02:00:23;101635.00;;;16.85;47.25
6942;BME280;3510;43.200;27.920;2023-04-09T02:02:57;101626.28;;;16.81;47.15
6942;BME280;3510;43.200;27.920;2023-04-09T02:05:24;101622.78;;;16.57;47.54
6942;BME280;3510;43.200;27.920;2023-04-09T02:07:54;101622.38;;;16.86;46.74
6942;BME280;3510;43.200;27.920;2023-04-09T02:10:21;101623.00;;;16.37;47.90
6942;BME280;3510;43.200;27.920;2023-04-09T02:12:50;101620.31;;;16.24;48.30
6942;BME280;3510;43.200;27.920;2023-04-09T02:15:18;101618.88;;;16.27;48.18
6942;BME280;3510;43.200;27.920;2023-04-09T02:17:46;101618.91;;;15.93;48.98
6942;BME280;3510;43.200;27.920;2023-04-09T02:20:16;101614.09;;;16.20;48.69
6942;BME280;3510;43.200;27.920;2023-04-09T02:22:43;101619.13;;;15.96;49.27
6942;BME280;3510;43.200;27.920;2023-04-09T02:25:10;101621.34;;;16.37;48.04
6942;BME280;3510;43.200;27.920;2023-04-09T02:27:37;101617.03;;;16.25;48.40
6942;BME280;3510;43.200;27.920;2023-04-09T02:30:03;101619.63;;;16.14;48.59
6942;BME280;3510;43.200;27.920;2023-04-09T02:32:30;101615.03;;;16.32;48.44
6942;BME280;3510;43.200;27.920;2023-04-09T02:34:56;101612.09;;;16.04;49.00
6942;BME280;3510;43.200;27.920;2023-04-09T02:37:24;101615.94;;;15.99;49.02
6942;BME280;3510;43.200;27.920;2023-04-09T02:39:50;101618.19;;;16.06;48.93
6942;BME280;3510;43.200;27.920;2023-04-09T02:42:17;101620.00;;;15.97;49.12
6942;BME280;3510;43.200;27.920;2023-04-09T02:44:44;101610.63;;;15.96;49.07
6942;BME280;3510;43.200;27.920;2023-04-09T02:47:10;101614.06;;;15.96;48.87
6942;BME280;3510;43.200;27.920;2023-04-09T02:49:37;101620.00;;;15.97;49.00
6942;BME280;3510;43.200;27.920;2023-04-09T02:52:04;101609.00;;;16.08;48.64
6942;BME280;3510;43.200;27.920;2023-04-09T02:54:34;101602.50;;;15.56;49.71
6942;BME280;3510;43.200;27.920;2023-04-09T02:57:01;101602.56;;;15.68;49.37
6942;BME280;3510;43.200;27.920;2023-04-09T02:59:28;101599.41;;;15.60;50.08
6942;BME280;3510;43.200;27.920;2023-04-09T03:01:57;101602.19;;;15.41;50.32
6942;BME280;3510;43.200;27.920;2023-04-09T03:04:23;101606.25;;;15.17;50.96
6942;BME280;3510;43.200;27.920;2023-04-09T03:06:50;101603.03;;;15.52;50.17
6942;BME280;3510;43.200;27.920;2023-04-09T03:09:16;101607.50;;;15.22;50.98
6942;BME280;3510;43.200;27.920;2023-04-09T03:11:45;101609.91;;;14.89;52.68
6942;BME280;3510;43.200;27.920;2023-04-09T03:14:11;101611.25;;;15.06;51.79
6942;BME280;3510;43.200;27.920;2023-04-09T03:16:38;101613.78;;;15.06;51.78
6942;BME280;3510;43.200;27.920;2023-04-09T03:19:04;101608.56;;;15.14;51.67
6942;BME280;3510;43.200;27.920;2023-04-09T03:21:31;101610.34;;;14.73;52.29
6942;BME280;3510;43.200;27.920;2023-04-09T03:23:58;101605.56;;;14.98;51.86
6942;BME280;3510;43.200;27.920;2023-04-09T03:26:24;101609.31;;;14.81;52.13
6942;BME280;3510;43.200;27.920;2023-04-09T03:28:52;101614.00;;;14.76;52.30
6942;BME280;3510;43.200;27.920;2023-04-09T03:31:19;101617.56;;;14.48;53.27
6942;BME280;3510;43.200;27.920;2023-04-09T03:33:45;101619.09;;;14.56;52.74
6942;BME280;3510;43.200;27.920;2023-04-09T03:36:11;101620.50;;;14.63;52.23
6942;BME280;3510;43.200;27.920;2023-04-09T03:38:52;101618.22;;;14.25;53.31
6942;BME280;3510;43.200;27.920;2023-04-09T03:41:32;101619.22;;;14.37;53.12
6942;BME280;3510;43.200;27.920;2023-04-09T03:52:47;101630.00;;;14.55;52.44
6942;BME280;3510;43.200;27.920;2023-04-09T03:55:13;101627.06;;;14.40;52.94
6942;BME280;3510;43.200;27.920;2023-04-09T03:57:39;101631.50;;;14.73;52.41
6942;BME280;3510;43.200;27.920;2023-04-09T04:00:06;101634.22;;;14.87;52.12
6942;BME280;3510;43.200;27.920;2023-04-09T04:02:33;101627.22;;;14.32;53.44
6942;BME280;3510;43.200;27.920;2023-04-09T04:05:06;101631.59;;;14.85;52.28
6942;BME280;3510;43.200;27.920;2023-04-09T04:07:36;101627.22;;;14.52;52.74
6942;BME280;3510;43.200;27.920;2023-04-09T04:10:05;101631.25;;;14.60;53.02
6942;BME280;3510;43.200;27.920;2023-04-09T04:12:32;101635.31;;;14.68;52.86
6942;BME280;3510;43.200;27.920;2023-04-09T04:14:58;101630.97;;;14.77;52.31
6942;BME280;3510;43.200;27.920;2023-04-09T04:17:25;101641.00;;;14.66;52.43
6942;BME280;3510;43.200;27.920;2023-04-09T04:19:52;101636.56;;;14.53;52.81
6942;BME280;3510;43.200;27.920;2023-04-09T04:22:18;101641.84;;;14.87;52.31
6942;BME280;3510;43.200;27.920;2023-04-09T04:24:51;101640.03;;;15.06;52.03
6942;BME280;3510;43.200;27.920;2023-04-09T04:27:33;101644.50;;;15.53;50.86
6942;BME280;3510;43.200;27.920;2023-04-09T04:29:59;101642.91;;;15.43;50.80
6942;BME280;3510;43.200;27.920;2023-04-09T04:32:26;101641.13;;;15.64;50.00
6942;BME280;3510;43.200;27.920;2023-04-09T04:34:53;101638.91;;;15.57;50.11
6942;BME280;3510;43.200;27.920;2023-04-09T04:37:20;101644.31;;;16.05;49.32
6942;BME280;3510;43.200;27.920;2023-04-09T04:39:49;101644.44;;;15.73;49.39
6942;BME280;3510;43.200;27.920;2023-04-09T04:42:30;101638.75;;;16.21;48.22
6942;BME280;3510;43.200;27.920;2023-04-09T04:44:57;101643.06;;;15.66;48.79
6942;BME280;3510;43.200;27.920;2023-04-09T04:47:24;101645.75;;;14.93;48.11
6942;BME280;3510;43.200;27.920;2023-04-09T04:49:51;101643.50;;;15.51;47.44
6942;BME280;3510;43.200;27.920;2023-04-09T04:52:17;101648.63;;;15.72;47.25
6942;BME280;3510;43.200;27.920;2023-04-09T04:54:44;101641.72;;;15.82;47.71
6942;BME280;3510;43.200;27.920;2023-04-09T04:57:10;101642.47;;;16.48;46.02
6942;BME280;3510;43.200;27.920;2023-04-09T04:59:37;101645.25;;;15.84;47.71
6942;BME280;3510;43.200;27.920;2023-04-09T05:02:05;101646.03;;;16.62;45.87
6942;BME280;3510;43.200;27.920;2023-04-09T05:04:33;101653.31;;;15.90;47.47
6942;BME280;3510;43.200;27.920;2023-04-09T05:06:59;101645.72;;;15.68;47.53
6942;BME280;3510;43.200;27.920;2023-04-09T05:09:29;101654.19;;;15.90;47.21
6942;BME280;3510;43.200;27.920;2023-04-09T05:11:55;101655.91;;;16.02;46.81
6942;BME280;3510;43.200;27.920;2023-04-09T05:14:23;101654.06;;;16.56;45.88
6942;BME280;3510;43.200;27.920;2023-04-09T05:16:49;101650.97;;;16.72;45.04
6942;BME280;3510;43.200;27.920;2023-04-09T05:19:18;101653.78;;;16.87;45.00
6942;BME280;3510;43.200;27.920;2023-04-09T05:21:45;101658.13;;;16.88;45.07
6942;BME280;3510;43.200;27.920;2023-04-09T05:24:11;101658.19;;;16.20;45.81
6942;BME280;3510;43.200;27.920;2023-04-09T05:26:37;101659.75;;;15.96;46.53
6942;BME280;3510;43.200;27.920;2023-04-09T05:29:04;101660.28;;;16.14;46.29
6942;BME280;3510;43.200;27.920;2023-04-09T05:31:30;101663.03;;;16.17;46.80
6942;BME280;3510;43.200;27.920;2023-04-09T05:33:57;101660.66;;;16.88;45.37
6942;BME280;3510;43.200;27.920;2023-04-09T05:36:25;101663.41;;;16.34;46.58
6942;BME280;3510;43.200;27.920;2023-04-09T05:38:52;101670.16;;;17.26;44.65
6942;BME280;3510;43.200;27.920;2023-04-09T05:41:18;101669.28;;;16.33;46.31
6942;BME280;3510;43.200;27.920;2023-04-09T05:43:47;101602.78;;;16.38;45.83
6942;BME280;3510;43.200;27.920;2023-04-09T05:46:14;101678.66;;;17.14;44.81
6942;BME280;3510;43.200;27.920;2023-04-09T05:48:41;101685.53;;;17.15;44.87
6942;BME280;3510;43.200;27.920;2023-04-09T05:51:09;101681.69;;;18.06;43.27
6942;BME280;3510;43.200;27.920;2023-04-09T05:53:38;101682.00;;;18.74;41.73
6942;BME280;3510;43.200;27.920;2023-04-09T05:56:12;101682.00;;;18.74;40.76
6942;BME280;3510;43.200;27.920;2023-04-09T05:58:40;101673.66;;;18.76;41.09
6942;BME280;3510;43.200;27.920;2023-04-09T06:01:07;101677.38;;;18.95;40.44
6942;BME280;3510;43.200;27.920;2023-04-09T06:03:34;101680.13;;;18.46;41.45
6942;BME280;3510;43.200;27.920;2023-04-09T06:06:01;101653.28;;;19.44;39.98
6942;BME280;3510;43.200;27.920;2023-04-09T06:08:28;101675.84;;;18.58;40.44
6942;BME280;3510;43.200;27.920;2023-04-09T06:10:57;101682.66;;;18.71;40.49
6942;BME280;3510;43.200;27.920;2023-04-09T06:13:24;101688.97;;;18.51;41.03
6942;BME280;3510;43.200;27.920;2023-04-09T06:15:51;101683.19;;;18.54;40.84
6942;BME280;3510;43.200;27.920;2023-04-09T06:18:17;101679.72;;;17.65;42.17
6942;BME280;3510;43.200;27.920;2023-04-09T06:20:44;101690.56;;;17.99;42.18
6942;BME280;3510;43.200;27.920;2023-04-09T06:23:11;101697.50;;;19.30;39.94
6942;BME280;3510;43.200;27.920;2023-04-09T06:25:38;101700.94;;;19.85;39.37
6942;BME280;3510;43.200;27.920;2023-04-09T06:28:06;101703.69;;;19.07;40.10
6942;BME280;3510;43.200;27.920;2023-04-09T06:30:36;101702.66;;;18.65;41.33
6942;BME280;3510;43.200;27.920;2023-04-09T06:33:03;101701.84;;;18.91;41.05
6942;BME280;3510;43.200;27.920;2023-04-09T06:35:35;101683.91;;;19.71;39.47
6942;BME280;3510;43.200;27.920;2023-04-09T06:38:04;101693.56;;;20.18;39.02
6942;BME280;3510;43.200;27.920;2023-04-09T06:40:32;101706.94;;;19.86;39.69
6942;BME280;3510;43.200;27.920;2023-04-09T06:42:59;101708.09;;;19.91;39.88
6942;BME280;3510;43.200;27.920;2023-04-09T06:45:27;101688.78;;;19.81;40.37
6942;BME280;3510;43.200;27.920;2023-04-09T06:47:55;101677.19;;;18.53;42.76
6942;BME280;3510;43.200;27.920;2023-04-09T06:50:22;101698.88;;;19.25;42.13
6942;BME280;3510;43.200;27.920;2023-04-09T06:53:05;101668.03;;;17.69;44.93
6942;BME280;3510;43.200;27.920;2023-04-09T06:55:32;101654.63;;;18.33;43.70
6942;BME280;3510;43.200;27.920;2023-04-09T06:57:59;101710.66;;;17.71;46.07
6942;BME280;3510;43.200;27.920;2023-04-09T07:00:28;101689.38;;;18.19;44.15
6942;BME280;3510;43.200;27.920;2023-04-09T07:02:55;101703.69;;;18.69;44.08
6942;BME280;3510;43.200;27.920;2023-04-09T07:05:22;101670.50;;;18.94;43.12
6942;BME280;3510;43.200;27.920;2023-04-09T07:08:03;101703.31;;;20.10;41.00
6942;BME280;3510;43.200;27.920;2023-04-09T07:10:30;101695.91;;;20.15;40.32
6942;BME280;3510;43.200;27.920;2023-04-09T07:12:57;101671.72;;;19.95;40.04
6942;BME280;3510;43.200;27.920;2023-04-09T07:15:25;101699.63;;;20.20;40.22
6942;BME280;3510;43.200;27.920;2023-04-09T07:17:53;101698.31;;;20.84;38.94
6942;BME280;3510;43.200;27.920;2023-04-09T07:20:22;101670.56;;;20.47;38.88
6942;BME280;3510;43.200;27.920;2023-04-09T07:22:59;101701.34;;;19.91;40.38
6942;BME280;3510;43.200;27.920;2023-04-09T07:25:26;101691.19;;;19.51;41.10
6942;BME280;3510;43.200;27.920;2023-04-09T07:27:53;101700.34;;;20.17;40.48
6942;BME280;3510;43.200;27.920;2023-04-09T07:30:20;101709.56;;;19.19;42.24
6942;BME280;3510;43.200;27.920;2023-04-09T07:32:46;101706.94;;;19.04;42.25
6942;BME280;3510;43.200;27.920;2023-04-09T07:35:14;101672.00;;;19.03;42.39
6942;BME280;3510;43.200;27.920;2023-04-09T07:37:43;101699.44;;;19.34;42.60
6942;BME280;3510;43.200;27.920;2023-04-09T07:40:09;101696.28;;;20.36;40.20
6942;BME280;3510;43.200;27.920;2023-04-09T07:42:36;101699.31;;;20.43;39.48
6942;BME280;3510;43.200;27.920;2023-04-09T07:45:05;101674.47;;;20.70;38.85
6942;BME280;3510;43.200;27.920;2023-04-09T07:47:32;101691.47;;;19.97;40.41
6942;BME280;3510;43.200;27.920;2023-04-09T07:49:58;101699.34;;;19.87;41.22
6942;BME280;3510;43.200;27.920;2023-04-09T07:52:26;101703.56;;;20.58;39.70
6942;BME280;3510;43.200;27.920;2023-04-09T07:54:53;101709.00;;;20.34;39.93
6942;BME280;3510;43.200;27.920;2023-04-09T07:57:20;101707.88;;;18.80;43.56
6942;BME280;3510;43.200;27.920;2023-04-09T07:59:48;101683.34;;;18.05;44.76
6942;BME280;3510;43.200;27.920;2023-04-09T08:02:16;101669.88;;;18.20;44.25
6942;BME280;3510;43.200;27.920;2023-04-09T08:04:55;101654.47;;;18.56;43.88
6942;BME280;3510;43.200;27.920;2023-04-09T08:07:23;101685.34;;;18.61;43.69
6942;BME280;3510;43.200;27.920;2023-04-09T08:09:54;101718.56;;;18.49;44.81
6942;BME280;3510;43.200;27.920;2023-04-09T08:12:21;101704.94;;;18.10;44.71
6942;BME280;3510;43.200;27.920;2023-04-09T08:14:48;101674.53;;;18.90;43.87
6942;BME280;3510;43.200;27.920;2023-04-09T08:17:15;101662.91;;;19.35;42.68
6942;BME280;3510;43.200;27.920;2023-04-09T08:19:43;101711.81;;;19.54;42.34
6942;BME280;3510;43.200;27.920;2023-04-09T08:22:09;101678.84;;;20.14;40.87
6942;BME280;3510;43.200;27.920;2023-04-09T08:24:37;101717.44;;;20.76;39.75
6942;BME280;3510;43.200;27.920;2023-04-09T08:27:09;101710.66;;;20.19;40.17
6942;BME280;3510;43.200;27.920;2023-04-09T08:29:36;101712.63;;;20.10;40.52
6942;BME280;3510;43.200;27.920;2023-04-09T08:32:05;101716.09;;;19.69;41.09
6942;BME280;3510;43.200;27.920;2023-04-09T08:34:36;101683.69;;;19.81;41.13
6942;BME280;3510;43.200;27.920;2023-04-09T08:37:03;101722.97;;;20.98;38.72
6942;BME280;3510;43.200;27.920;2023-04-09T08:39:31;101717.09;;;20.27;40.07
6942;BME280;3510;43.200;27.920;2023-04-09T08:41:59;101587.03;;;19.74;40.14
6942;BME280;3510;43.200;27.920;2023-04-09T08:44:29;101713.09;;;20.02;40.83
6942;BME280;3510;43.200;27.920;2023-04-09T08:46:58;101717.28;;;20.30;40.77
6942;BME280;3510;43.200;27.920;2023-04-09T08:49:25;101693.31;;;19.72;41.14
6942;BME280;3510;43.200;27.920;2023-04-09T08:51:53;101705.38;;;20.30;40.34
6942;BME280;3510;43.200;27.920;2023-04-09T08:54:20;101707.63;;;20.98;39.31
6942;BME280;3510;43.200;27.920;2023-04-09T08:56:48;101716.38;;;20.58;40.21
6942;BME280;3510;43.200;27.920;2023-04-09T08:59:15;101711.78;;;20.52;40.31
6942;BME280;3510;43.200;27.920;2023-04-09T09:01:44;101708.19;;;20.78;40.24
6942;BME280;3510;43.200;27.920;2023-04-09T09:04:17;101684.03;;;21.19;39.18
6942;BME280;3510;43.200;27.920;2023-04-09T09:06:44;101687.09;;;20.82;39.53
6942;BME280;3510;43.200;27.920;2023-04-09T09:09:12;101679.28;;;19.93;40.97
6942;BME280;3510;43.200;27.920;2023-04-09T09:11:41;101672.38;;;19.77;42.08
6942;BME280;3510;43.200;27.920;2023-04-09T09:14:11;101709.69;;;20.31;41.07
6942;BME280;3510;43.200;27.920;2023-04-09T09:16:43;101708.34;;;20.81;40.28
6942;BME280;3510;43.200;27.920;2023-04-09T09:19:28;101681.91;;;20.23;40.98
6942;BME280;3510;43.200;27.920;2023-04-09T09:21:58;101695.72;;;20.12;41.57
6942;BME280;3510;43.200;27.920;2023-04-09T09:24:26;101707.03;;;20.58;39.83
6942;BME280;3510;43.200;27.920;2023-04-09T09:26:54;101700.03;;;21.00;39.31
6942;BME280;3510;43.200;27.920;2023-04-09T09:29:21;101722.25;;;21.16;38.62
6942;BME280;3510;43.200;27.920;2023-04-09T09:31:50;101684.13;;;21.52;38.23
6942;BME280;3510;43.200;27.920;2023-04-09T09:34:21;101683.97;;;21.48;38.09
6942;BME280;3510;43.200;27.920;2023-04-09T09:36:48;101717.84;;;21.13;38.97
6942;BME280;3510;43.200;27.920;2023-04-09T09:39:16;101654.91;;;21.64;37.91
6942;BME280;3510;43.200;27.920;2023-04-09T09:41:44;101695.31;;;21.22;38.55
6942;BME280;3510;43.200;27.920;2023-04-09T09:44:12;101689.31;;;21.22;38.87
6942;BME280;3510;43.200;27.920;2023-04-09T09:46:57;101696.06;;;20.90;39.48
6942;BME280;3510;43.200;27.920;2023-04-09T09:49:26;101685.03;;;20.32;40.11
6942;BME280;3510;43.200;27.920;2023-04-09T09:52:08;101697.88;;;20.76;39.15
6942;BME280;3510;43.200;27.920;2023-04-09T09:54:39;101680.25;;;20.97;38.92
6942;BME280;3510;43.200;27.920;2023-04-09T09:57:10;101691.66;;;21.02;38.81
6942;BME280;3510;43.200;27.920;2023-04-09T09:59:42;101693.59;;;21.07;38.63
6942;BME280;3510;43.200;27.920;2023-04-09T10:02:17;101664.84;;;21.27;38.36
6942;BME280;3510;43.200;27.920;2023-04-09T10:04:48;101659.00;;;21.61;37.89
6942;BME280;3510;43.200;27.920;2023-04-09T10:07:18;101650.84;;;21.84;37.13
6942;BME280;3510;43.200;27.920;2023-04-09T10:09:48;101683.19;;;21.82;36.89
6942;BME280;3510;43.200;27.920;2023-04-09T10:12:18;101683.53;;;21.88;37.05
6942;BME280;3510;43.200;27.920;2023-04-09T10:14:50;101658.53;;;21.52;37.49
6942;BME280;3510;43.200;27.920;2023-04-09T10:17:18;101671.50;;;21.55;37.60
6942;BME280;3510;43.200;27.920;2023-04-09T10:19:54;101659.53;;;20.93;38.49
6942;BME280;3510;43.200;27.920;2023-04-09T10:22:28;101647.09;;;20.99;38.37
6942;BME280;3510;43.200;27.920;2023-04-09T10:24:57;101669.22;;;21.44;37.48
6942;BME280;3510;43.200;27.920;2023-04-09T10:27:25;101642.88;;;21.16;37.67
6942;BME280;3510;43.200;27.920;2023-04-09T10:29:52;101670.44;;;21.51;37.22
6942;BME280;3510;43.200;27.920;2023-04-09T10:32:20;101672.75;;;21.32;37.75
6942;BME280;3510;43.200;27.920;2023-04-09T10:34:49;101675.66;;;21.69;37.52
6942;BME280;3510;43.200;27.920;2023-04-09T10:37:20;101620.19;;;21.69;36.79
6942;BME280;3510;43.200;27.920;2023-04-09T10:39:49;101655.22;;;21.87;36.97
6942;BME280;3510;43.200;27.920;2023-04-09T10:42:18;101676.78;;;21.90;37.43
6942;BME280;3510;43.200;27.920;2023-04-09T10:45:04;101636.50;;;21.55;37.50
6942;BME280;3510;43.200;27.920;2023-04-09T10:47:34;101637.63;;;21.44;37.99
6942;BME280;3510;43.200;27.920;2023-04-09T10:50:19;101593.97;;;21.75;37.55
6942;BME280;3510;43.200;27.920;2023-04-09T10:52:56;101660.13;;;21.66;38.34
6942;BME280;3510;43.200;27.920;2023-04-09T10:55:29;101634.97;;;21.42;38.63
6942;BME280;3510;43.200;27.920;2023-04-09T10:58:12;101646.81;;;21.40;38.63
6942;BME280;3510;43.200;27.920;2023-04-09T11:00:43;101655.84;;;21.34;39.29
6942;BME280;3510;43.200;27.920;2023-04-09T11:03:25;101649.56;;;21.43;39.22
6942;BME280;3510;43.200;27.920;2023-04-09T11:06:01;101653.47;;;20.76;40.61
6942;BME280;3510;43.200;27.920;2023-04-09T11:08:28;101655.63;;;21.14;39.82
6942;BME280;3510;43.200;27.920;2023-04-09T11:10:56;101644.75;;;21.66;38.71
6942;BME280;3510;43.200;27.920;2023-04-09T11:13:26;101623.22;;;21.79;38.41
6942;BME280;3510;43.200;27.920;2023-04-09T11:15:54;101620.72;;;21.96;38.28
6942;BME280;3510;43.200;27.920;2023-04-09T11:18:23;101614.78;;;22.48;37.50
6942;BME280;3510;43.200;27.920;2023-04-09T11:20:53;101602.72;;;22.13;37.79
6942;BME280;3510;43.200;27.920;2023-04-09T11:23:24;101630.81;;;22.44;37.16
6942;BME280;3510;43.200;27.920;2023-04-09T11:25:52;101638.03;;;22.35;37.72
6942;BME280;3510;43.200;27.920;2023-04-09T11:28:21;101626.78;;;21.98;38.05
6942;BME280;3510;43.200;27.920;2023-04-09T11:30:49;101630.47;;;21.87;38.89
6942;BME280;3510;43.200;27.920;2023-04-09T11:33:16;101618.06;;;22.45;37.66
6942;BME280;3510;43.200;27.920;2023-04-09T11:35:43;101624.56;;;21.72;38.59
6942;BME280;3510;43.200;27.920;2023-04-09T11:38:11;101621.66;;;21.98;38.12
6942;BME280;3510;43.200;27.920;2023-04-09T11:40:43;101612.91;;;22.11;37.96
6942;BME280;3510;43.200;27.920;2023-04-09T11:43:12;101612.34;;;22.33;37.30
6942;BME280;3510;43.200;27.920;2023-04-09T11:45:41;101610.91;;;22.22;36.95
6942;BME280;3510;43.200;27.920;2023-04-09T11:48:08;101585.50;;;22.44;36.66
6942;BME280;3510;43.200;27.920;2023-04-09T11:50:36;101593.69;;;22.19;37.67
6942;BME280;3510;43.200;27.920;2023-04-09T11:53:15;101602.88;;;22.50;37.25
6942;BME280;3510;43.200;27.920;2023-04-09T11:55:46;101559.28;;;22.32;37.43
6942;BME280;3510;43.200;27.920;2023-04-09T11:58:16;101601.78;;;21.94;38.35
6942;BME280;3510;43.200;27.920;2023-04-09T12:00:43;101589.53;;;21.55;38.83
6942;BME280;3510;43.200;27.920;2023-04-09T12:03:10;101562.28;;;20.93;39.22
6942;BME280;3510;43.200;27.920;2023-04-09T12:05:44;101459.66;;;21.54;37.97
6942;BME280;3510;43.200;27.920;2023-04-09T12:08:13;101565.34;;;22.00;37.81
6942;BME280;3510;43.200;27.920;2023-04-09T12:10:42;101590.50;;;22.59;36.86
6942;BME280;3510;43.200;27.920;2023-04-09T12:13:10;101582.88;;;22.25;37.73
6942;BME280;3510;43.200;27.920;2023-04-09T12:15:38;101582.59;;;22.37;37.81
6942;BME280;3510;43.200;27.920;2023-04-09T12:18:08;101579.06;;;22.88;36.40
6942;BME280;3510;43.200;27.920;2023-04-09T12:20:37;101557.66;;;23.25;35.54
6942;BME280;3510;43.200;27.920;2023-04-09T12:23:07;101588.13;;;24.37;33.90
6942;BME280;3510;43.200;27.920;2023-04-09T12:25:36;101583.47;;;24.28;33.43
6942;BME280;3510;43.200;27.920;2023-04-09T12:28:07;101538.44;;;25.52;31.92
6942;BME280;3510;43.200;27.920;2023-04-09T12:30:36;101573.31;;;27.27;29.87
6942;BME280;3510;43.200;27.920;2023-04-09T12:33:05;101565.63;;;25.44;30.82
6942;BME280;3510;43.200;27.920;2023-04-09T12:35:34;101591.78;;;25.08;31.88
6942;BME280;3510;43.200;27.920;2023-04-09T12:38:02;101592.34;;;25.94;30.87
6942;BME280;3510;43.200;27.920;2023-04-09T12:40:30;101559.47;;;26.41;29.94
6942;BME280;3510;43.200;27.920;2023-04-09T12:42:58;101595.81;;;27.02;28.98
6942;BME280;3510;43.200;27.920;2023-04-09T12:45:28;101553.59;;;27.02;28.51
6942;BME280;3510;43.200;27.920;2023-04-09T12:47:59;101548.28;;;27.89;27.78
6942;BME280;3510;43.200;27.920;2023-04-09T12:50:27;101589.66;;;27.26;27.74
6942;BME280;3510;43.200;27.920;2023-04-09T12:52:55;101581.47;;;26.84;28.52
6942;BME280;3510;43.200;27.920;2023-04-09T12:55:22;101523.69;;;25.73;29.47
6942;BME280;3510;43.200;27.920;2023-04-09T12:57:49;101562.88;;;24.70;31.45
6942;BME280;3510;43.200;27.920;2023-04-09T13:00:17;101471.66;;;24.20;30.96
6942;BME280;3510;43.200;27.920;2023-04-09T13:02:46;101499.47;;;23.66;31.89
6942;BME280;3510;43.200;27.920;2023-04-09T13:05:14;101536.41;;;23.49;32.82
6942;BME280;3510;43.200;27.920;2023-04-09T13:07:41;101471.59;;;21.53;35.63
6942;BME280;3510;43.200;27.920;2023-04-09T13:10:10;101544.63;;;22.30;35.83
6942;BME280;3510;43.200;27.920;2023-04-09T13:12:42;101542.94;;;22.30;35.64
6942;BME280;3510;43.200;27.920;2023-04-09T13:15:10;101541.78;;;22.07;36.13
6942;BME280;3510;43.200;27.920;2023-04-09T13:17:51;101540.97;;;21.74;36.56